Time;durP1;ratioP1;P1;durP2;ratioP2;P2;SDS_P1;SDS_P2;PMS_P1;PMS_P2;Temp;Humidity;BMP_temperature;BMP_pressure;BME280_temperature;BME280_humidity;BME280_pressure;Samples;Min_cycle;Max_cycle;Signal;HPM_P1;HPM_P2
2024/02/14 00:02:15;;;;;;;6.15;3.40;;;;;;;5.10;82.03;98949.88;5034607;28;20030;-86
2024/02/14 00:04:40;;;;;;;4.60;3.53;;;;;;;4.83;83.47;98963.38;5034936;28;20033;-86
2024/02/14 00:07:06;;;;;;;4.63;3.65;;;;;;;4.97;84.02;98967.63;5022012;28;20027;-86
2024/02/14 00:09:31;;;;;;;7.13;3.45;;;;;;;4.71;83.58;98938.63;5056742;28;20037;-86
2024/02/14 00:11:57;;;;;;;6.72;3.70;;;;;;;4.63;83.34;98902.66;5050235;28;20055;-86
2024/02/14 00:14:22;;;;;;;6.28;4.03;;;;;;;4.76;83.50;98915.03;5019623;28;20117;-86
2024/02/14 00:16:47;;;;;;;7.75;4.78;;;;;;;4.62;84.04;98910.81;5020010;28;20043;-86
2024/02/14 00:19:13;;;;;;;6.93;4.43;;;;;;;4.83;84.40;98936.94;5018961;28;20029;-85
2024/02/14 00:21:39;;;;;;;8.73;4.68;;;;;;;4.76;84.18;98913.19;5033829;28;20447;-85
2024/02/14 00:24:05;;;;;;;9.75;4.15;;;;;;;4.62;84.20;98902.88;5051262;28;20025;-85
2024/02/14 00:26:30;;;;;;;8.20;4.55;;;;;;;4.83;84.23;98931.66;5018659;28;20033;-85
2024/02/14 00:28:56;;;;;;;6.88;4.07;;;;;;;4.61;84.20;98874.84;5051279;28;20036;-86
2024/02/14 00:31:21;;;;;;;8.75;4.32;;;;;;;4.88;83.81;98902.75;5049531;28;20053;-85
2024/02/14 00:33:46;;;;;;;8.23;4.85;;;;;;;4.99;83.55;98915.31;5042662;28;20061;-85
2024/02/14 00:36:12;;;;;;;7.72;5.15;;;;;;;5.18;83.59;98932.91;5042357;28;20045;-84
2024/02/14 00:38:37;;;;;;;7.68;5.28;;;;;;;4.84;83.46;98883.88;5056294;28;20036;-85
2024/02/14 00:41:03;;;;;;;8.45;5.05;;;;;;;5.12;83.75;98931.13;5047518;28;20029;-86
2024/02/14 00:43:28;;;;;;;8.32;4.63;;;;;;;5.08;83.61;98929.94;5052872;28;20040;-86
2024/02/14 00:45:56;;;;;;;7.72;4.22;;;;;;;5.09;84.52;98931.53;5048588;28;20033;-86
2024/02/14 00:48:22;;;;;;;9.65;4.70;;;;;;;5.06;83.67;98932.81;5053999;28;20032;-86
2024/02/14 00:50:47;;;;;;;9.38;4.78;;;;;;;4.72;84.22;98855.69;5052895;28;20036;-86
2024/02/14 00:53:13;;;;;;;7.30;4.40;;;;;;;5.02;84.67;98922.84;5054757;28;20027;-86
2024/02/14 00:55:39;;;;;;;7.82;4.93;;;;;;;5.08;84.58;98927.28;5037190;28;20043;-86
2024/02/14 00:58:04;;;;;;;6.75;4.22;;;;;;;4.92;84.88;98922.47;5055457;28;20040;-85
2024/02/14 01:00:31;;;;;;;6.50;4.32;;;;;;;4.85;84.71;98901.34;5056030;28;20518;-86
2024/02/14 01:02:57;;;;;;;4.93;3.85;;;;;;;5.18;84.64;98917.88;5038446;28;20026;-86
2024/02/14 01:05:23;;;;;;;7.00;4.25;;;;;;;5.22;83.52;98887.31;5056640;28;20476;-86
2024/02/14 01:07:48;;;;;;;10.93;4.35;;;;;;;4.83;84.04;98882.25;5023658;28;20089;-86
2024/02/14 01:10:13;;;;;;;6.28;3.75;;;;;;;5.32;83.47;98902.72;5055758;28;20033;-86
2024/02/14 01:12:39;;;;;;;11.52;4.20;;;;;;;5.29;83.97;98908.44;5054126;28;20061;-86
2024/02/14 01:15:06;;;;;;;7.13;4.30;;;;;;;5.50;83.57;98912.59;5036751;28;20053;-86
2024/02/14 01:17:31;;;;;;;7.57;4.70;;;;;;;5.26;82.70;98885.06;5059091;28;20025;-86
2024/02/14 01:19:58;;;;;;;8.35;3.80;;;;;;;4.97;84.72;98877.69;5039535;28;20356;-86
2024/02/14 01:22:23;;;;;;;10.43;4.82;;;;;;;5.29;82.90;98851.03;5042482;28;20450;-86
2024/02/14 01:24:49;;;;;;;6.65;4.45;;;;;;;5.12;83.64;98873.75;5043750;28;20025;-86
2024/02/14 01:27:15;;;;;;;7.90;4.13;;;;;;;5.33;84.13;98884.00;5042705;28;20035;-86
2024/02/14 01:29:41;;;;;;;8.07;4.45;;;;;;;5.04;83.79;98860.78;5057673;28;20028;-86
2024/02/14 01:32:06;;;;;;;6.93;4.65;;;;;;;5.44;84.17;98887.78;5055371;28;20051;-86
2024/02/14 01:34:32;;;;;;;7.95;4.60;;;;;;;5.30;83.38;98857.16;5037088;28;20033;-86
2024/02/14 01:36:58;;;;;;;8.68;4.43;;;;;;;4.79;84.16;98841.38;5037643;28;20463;-86
2024/02/14 01:39:23;;;;;;;4.53;3.88;;;;;;;5.50;84.00;98880.84;5052014;28;20044;-86
2024/02/14 01:41:49;;;;;;;6.55;4.43;;;;;;;5.20;84.12;98864.72;5020188;28;20025;-85
2024/02/14 01:44:18;;;;;;;12.57;4.82;;;;;;;5.39;83.16;98871.75;5035182;28;20362;-84
2024/02/14 01:46:47;;;;;;;9.27;3.80;;;;;;;4.73;83.82;98836.13;5030791;28;20742;-86
2024/02/14 01:49:14;;;;;;;5.85;4.22;;;;;;;4.58;85.18;98868.13;5054637;28;20064;-86
2024/02/14 01:51:43;;;;;;;6.90;4.57;;;;;;;4.66;85.50;98867.06;5037922;28;20112;-86
2024/02/14 01:54:11;;;;;;;9.45;4.60;;;;;;;4.63;86.25;98827.84;5035772;28;20025;-86
2024/02/14 01:56:37;;;;;;;6.03;3.78;;;;;;;4.88;86.68;98855.16;5052948;28;20029;-85
2024/02/14 01:59:04;;;;;;;10.82;4.55;;;;;;;5.18;85.69;98858.84;5036634;28;20117;-86
2024/02/14 02:01:30;;;;;;;7.05;4.00;;;;;;;5.37;84.89;98822.69;5035075;28;20113;-86
2024/02/14 02:03:55;;;;;;;6.72;4.15;;;;;;;5.02;84.46;98809.13;5073833;28;20037;-85
2024/02/14 02:06:21;;;;;;;8.75;3.92;;;;;;;5.23;84.59;98838.69;5050437;28;20510;-86
2024/02/14 02:08:47;;;;;;;5.40;4.00;;;;;;;5.27;85.18;98839.03;5055236;28;20079;-86
2024/02/14 02:11:13;;;;;;;5.35;3.95;;;;;;;5.07;85.22;98799.50;5035298;28;20041;-85
2024/02/14 02:13:40;;;;;;;5.00;4.05;;;;;;;4.51;85.08;98749.22;5036301;28;20040;-86
2024/02/14 02:16:06;;;;;;;3.90;3.25;;;;;;;5.14;84.86;98825.91;5029691;28;20121;-86
2024/02/14 02:18:32;;;;;;;3.80;3.35;;;;;;;5.38;85.65;98841.00;5053281;28;20048;-85
2024/02/14 02:20:57;;;;;;;9.60;2.78;;;;;;;4.91;84.73;98775.41;5039778;28;20096;-86
2024/02/14 02:23:23;;;;;;;7.22;2.53;;;;;;;5.01;84.97;98828.63;5054491;28;20039;-86
2024/02/14 02:25:50;;;;;;;11.18;3.00;;;;;;;5.17;85.47;98838.72;5030156;28;20040;-86
2024/02/14 02:28:15;;;;;;;5.07;3.00;;;;;;;4.86;85.20;98812.25;5054280;28;20481;-85
2024/02/14 02:30:41;;;;;;;4.15;2.92;;;;;;;4.86;85.73;98781.34;5056487;28;20067;-86
2024/02/14 02:33:07;;;;;;;6.63;2.63;;;;;;;5.21;84.61;98840.72;5054018;28;20119;-86
2024/02/14 02:35:33;;;;;;;6.50;2.78;;;;;;;5.24;85.50;98802.44;5054595;28;20037;-85
2024/02/14 02:37:59;;;;;;;5.43;2.67;;;;;;;5.58;84.55;98830.25;5048465;28;20039;-86
2024/02/14 02:40:25;;;;;;;3.97;2.63;;;;;;;5.36;84.38;98834.31;5038158;28;20479;-86
2024/02/14 02:42:51;;;;;;;6.63;2.35;;;;;;;5.33;85.97;98833.72;5053813;28;20098;-86
2024/02/14 02:45:17;;;;;;;4.68;2.25;;;;;;;4.96;85.31;98768.44;5024865;28;20029;-86
2024/02/14 02:47:42;;;;;;;6.85;2.33;;;;;;;5.15;84.87;98782.56;5039148;28;20062;-86
2024/02/14 02:50:08;;;;;;;3.85;2.28;;;;;;;5.59;84.27;98824.72;5042340;28;20040;-85
2024/02/14 02:52:34;;;;;;;3.53;2.10;;;;;;;5.60;84.26;98823.72;5058986;28;20420;-86
2024/02/14 02:55:01;;;;;;;5.75;2.35;;;;;;;5.10;85.40;98769.16;5055763;28;20025;-86
2024/02/14 02:57:26;;;;;;;4.45;2.75;;;;;;;5.07;85.13;98761.66;5048316;28;20032;-85
2024/02/14 02:59:54;;;;;;;3.90;2.20;;;;;;;5.10;85.56;98753.31;5033797;28;20507;-86
2024/02/14 03:02:20;;;;;;;5.60;2.53;;;;;;;5.42;85.50;98802.50;5046224;28;20032;-85
2024/02/14 03:04:46;;;;;;;3.67;2.17;;;;;;;5.58;84.76;98803.78;5035958;28;20029;-86
2024/02/14 03:07:12;;;;;;;3.28;2.30;;;;;;;5.26;85.02;98771.28;5015975;28;20454;-86
2024/02/14 03:09:38;;;;;;;7.25;2.30;;;;;;;5.37;84.38;98799.69;5052136;28;20033;-85
2024/02/14 03:12:04;;;;;;;6.43;2.65;;;;;;;5.59;84.57;98792.97;5032593;28;20033;-85
2024/02/14 03:14:32;;;;;;;7.03;2.40;;;;;;;5.21;84.65;98756.06;5036277;28;20142;-85
2024/02/14 03:17:02;;;;;;;2.92;2.35;;;;;;;5.61;84.49;98780.34;5054547;28;20025;-86
2024/02/14 03:19:28;;;;;;;5.10;2.40;;;;;;;5.39;84.76;98778.31;5033547;28;20038;-85
2024/02/14 03:21:54;;;;;;;2.20;2.05;;;;;;;5.58;84.53;98788.72;5035259;28;20025;-85
2024/02/14 03:24:19;;;;;;;6.28;2.30;;;;;;;5.44;84.87;98773.97;5018315;28;20939;-85
2024/02/14 03:26:45;;;;;;;3.22;2.95;;;;;;;5.56;84.86;98787.31;5035488;28;20033;-85
2024/02/14 03:29:10;;;;;;;5.35;2.53;;;;;;;5.52;84.64;98786.94;5033377;28;20024;-85
2024/02/14 03:31:36;;;;;;;4.10;2.42;;;;;;;5.58;85.40;98791.38;5031213;28;20036;-85
2024/02/14 03:34:02;;;;;;;2.15;1.90;;;;;;;5.65;84.64;98784.19;5033722;28;20546;-85
2024/02/14 03:36:31;;;;;;;3.38;2.33;;;;;;;5.42;84.38;98785.81;5051254;28;20041;-85
2024/02/14 03:38:57;;;;;;;5.32;2.58;;;;;;;5.23;85.19;98753.19;5014818;28;20033;-84
2024/02/14 03:41:22;;;;;;;4.13;2.47;;;;;;;5.61;84.52;98777.72;5027482;28;20029;-85
2024/02/14 03:43:49;;;;;;;3.40;2.38;;;;;;;5.49;84.77;98792.66;5046308;28;20484;-85
2024/02/14 03:46:14;;;;;;;5.85;2.58;;;;;;;5.25;85.17;98741.38;5029446;28;20048;-84
2024/02/14 03:48:41;;;;;;;2.50;2.25;;;;;;;5.55;84.80;98772.47;5051562;28;20131;-85
2024/02/14 03:51:07;;;;;;;3.67;1.90;;;;;;;5.42;85.01;98757.50;5036377;28;20049;-86
2024/02/14 03:53:33;;;;;;;4.70;2.60;;;;;;;5.59;84.99;98786.88;5050471;28;20032;-86
2024/02/14 03:55:58;;;;;;;2.92;2.15;;;;;;;5.29;84.51;98758.44;5050355;28;20052;-86
2024/02/14 03:58:24;;;;;;;5.32;2.20;;;;;;;5.26;85.41;98752.78;5033612;28;20044;-86
2024/02/14 04:00:52;;;;;;;7.25;2.78;;;;;;;5.54;85.73;98776.94;5036125;28;20044;-86
2024/02/14 04:03:18;;;;;;;3.65;2.45;;;;;;;5.50;85.78;98783.72;5046659;28;20417;-85
2024/02/14 04:05:47;;;;;;;3.95;2.38;;;;;;;5.25;85.87;98751.97;5052460;28;20020;-85
2024/02/14 04:08:13;;;;;;;5.28;2.90;;;;;;;5.27;85.95;98763.13;5045304;28;20102;-86
2024/02/14 04:10:38;;;;;;;5.35;2.33;;;;;;;5.50;85.95;98767.00;5048515;28;20033;-87
2024/02/14 04:13:04;;;;;;;3.03;2.47;;;;;;;5.39;85.92;98768.53;5030320;28;20156;-86
2024/02/14 04:15:31;;;;;;;5.75;2.53;;;;;;;4.96;85.52;98690.94;5046701;28;20136;-85
2024/02/14 04:17:56;;;;;;;8.50;2.53;;;;;;;5.20;85.65;98735.91;5016688;28;20110;-86
2024/02/14 04:20:21;;;;;;;6.72;2.65;;;;;;;5.35;85.96;98748.84;5051076;28;20029;-84
2024/02/14 04:22:47;;;;;;;3.13;2.38;;;;;;;5.38;85.76;98766.91;5015087;28;20041;-85
2024/02/14 04:25:12;;;;;;;6.90;2.50;;;;;;;5.45;86.41;98772.97;5044735;28;20090;-85
2024/02/14 04:27:37;;;;;;;6.70;2.90;;;;;;;4.98;85.87;98705.56;5033952;28;20654;-86
2024/02/14 04:30:04;;;;;;;6.82;2.70;;;;;;;5.32;86.75;98773.06;5046436;28;20042;-86
2024/02/14 04:32:30;;;;;;;4.78;3.15;;;;;;;5.40;87.41;98771.97;5048297;28;20060;-85
2024/02/14 04:34:56;;;;;;;5.68;3.05;;;;;;;5.19;87.22;98738.78;5016037;28;20036;-85
2024/02/14 04:37:21;;;;;;;4.50;2.72;;;;;;;5.48;86.85;98767.25;5043124;28;20033;-86
2024/02/14 04:39:47;;;;;;;7.18;2.95;;;;;;;5.27;87.49;98760.50;5042278;28;20112;-85
2024/02/14 04:42:12;;;;;;;5.45;2.65;;;;;;;4.80;87.89;98652.66;5050855;28;20035;-85
2024/02/14 04:44:38;;;;;;;8.85;3.40;;;;;;;5.40;87.69;98746.31;5050019;28;20034;-85
2024/02/14 04:47:04;;;;;;;6.55;3.17;;;;;;;5.24;87.95;98741.59;5034585;28;20030;-85
2024/02/14 04:49:30;;;;;;;7.57;3.75;;;;;;;5.37;88.71;98754.72;5052417;28;20376;-85
2024/02/14 04:51:57;;;;;;;11.77;4.07;;;;;;;5.20;88.51;98732.44;5052331;28;20020;-85
2024/02/14 04:54:22;;;;;;;6.57;3.90;;;;;;;5.21;89.08;98728.78;5052235;28;20052;-85
2024/02/14 04:56:47;;;;;;;5.00;3.03;;;;;;;5.16;88.32;98728.63;5047503;28;20063;-85
2024/02/14 04:59:13;;;;;;;6.78;3.42;;;;;;;5.31;88.16;98760.84;5030565;28;20107;-85
2024/02/14 05:01:39;;;;;;;6.00;3.35;;;;;;;5.06;88.42;98725.66;5043780;28;20040;-86
2024/02/14 05:04:06;;;;;;;4.97;3.50;;;;;;;5.18;87.86;98729.22;5046036;28;20045;-86
2024/02/14 05:06:32;;;;;;;4.82;3.13;;;;;;;4.90;88.89;98700.56;5049530;28;20083;-85
2024/02/14 05:08:57;;;;;;;4.53;3.47;;;;;;;5.26;88.27;98737.69;5045294;28;20432;-85
2024/02/14 05:11:23;;;;;;;3.58;2.40;;;;;;;5.19;88.80;98752.00;5032941;28;20600;-86
2024/02/14 05:13:48;;;;;;;6.40;2.97;;;;;;;5.24;88.09;98755.63;5048871;28;20032;-84
2024/02/14 05:16:18;;;;;;;3.60;2.78;;;;;;;5.29;87.17;98757.63;5030934;28;20056;-85
2024/02/14 05:18:43;;;;;;;4.53;3.30;;;;;;;5.20;88.09;98759.72;5043627;28;20028;-85
2024/02/14 05:21:09;;;;;;;4.95;3.45;;;;;;;5.16;87.76;98733.91;5028903;28;20115;-85
2024/02/14 05:23:35;;;;;;;3.95;2.95;;;;;;;5.19;88.25;98738.78;5041227;28;20535;-86
2024/02/14 05:26:02;;;;;;;6.25;3.05;;;;;;;5.22;87.88;98741.00;5046318;28;20062;-86
2024/02/14 05:28:31;;;;;;;11.90;2.97;;;;;;;5.24;87.79;98752.97;5048366;28;20508;-85
2024/02/14 05:30:57;;;;;;;6.00;3.00;;;;;;;5.44;87.83;98752.78;5047525;28;20056;-84
2024/02/14 05:33:23;;;;;;;4.95;2.60;;;;;;;5.34;87.58;98757.78;5030231;28;20438;-84
2024/02/14 05:35:52;;;;;;;4.65;2.67;;;;;;;5.27;88.48;98749.91;5024974;28;20033;-84
2024/02/14 05:38:21;;;;;;;6.65;2.65;;;;;;;5.33;88.69;98745.56;5046980;28;20029;-84
2024/02/14 05:40:47;;;;;;;14.13;4.40;;;;;;;5.30;88.66;98748.66;5044157;28;20055;-83
2024/02/14 05:43:13;;;;;;;5.25;2.58;;;;;;;5.30;89.04;98748.66;5057534;28;20427;-86
2024/02/14 05:45:38;;;;;;;6.57;3.22;;;;;;;5.29;88.67;98747.03;5052362;28;20041;-85
2024/02/14 05:48:04;;;;;;;3.97;2.92;;;;;;;5.29;88.23;98744.38;5032794;28;20034;-85
2024/02/14 05:50:31;;;;;;;4.38;2.70;;;;;;;5.11;88.96;98723.19;5047737;28;20606;-84
2024/02/14 05:52:57;;;;;;;6.20;2.72;;;;;;;5.24;87.72;98750.31;5029915;28;20531;-85
2024/02/14 05:55:23;;;;;;;4.97;3.40;;;;;;;5.36;87.98;98760.19;5049642;28;20029;-84
2024/02/14 05:57:48;;;;;;;4.80;2.95;;;;;;;5.02;88.38;98708.63;5051192;28;20041;-86
2024/02/14 06:00:14;;;;;;;6.32;4.45;;;;;;;5.36;88.45;98757.56;5050621;28;20025;-84
2024/02/14 06:02:40;;;;;;;6.80;3.50;;;;;;;5.21;87.51;98723.50;5031487;28;20079;-83
2024/02/14 06:05:10;;;;;;;6.10;2.83;;;;;;;5.24;88.22;98747.69;5054920;28;20088;-85
2024/02/14 06:07:36;;;;;;;8.48;3.08;;;;;;;5.24;87.85;98737.09;5047231;28;20036;-85
2024/02/14 06:10:02;;;;;;;1.98;1.77;;;;;;;5.41;87.68;98766.47;5043874;28;20028;-84
2024/02/14 06:12:27;;;;;;;4.72;3.22;;;;;;;5.35;87.86;98766.53;5052636;28;20028;-84
2024/02/14 06:14:53;;;;;;;5.00;2.90;;;;;;;5.24;88.43;98749.53;5039999;28;20051;-84
2024/02/14 06:17:18;;;;;;;8.55;4.35;;;;;;;5.24;88.56;98749.53;5036947;28;20025;-84
2024/02/14 06:19:43;;;;;;;6.20;3.25;;;;;;;5.21;88.28;98752.59;5029357;28;20120;-83
2024/02/14 06:22:10;;;;;;;4.13;3.13;;;;;;;5.10;88.45;98732.13;5057526;28;20041;-84
2024/02/14 06:24:36;;;;;;;5.70;3.45;;;;;;;5.44;88.06;98766.03;5056463;28;20396;-84
2024/02/14 06:27:01;;;;;;;5.18;2.90;;;;;;;5.24;88.29;98733.66;5040985;28;20029;-84
2024/02/14 06:29:26;;;;;;;10.43;4.20;;;;;;;5.40;87.92;98754.25;5034286;28;20041;-85
2024/02/14 06:31:52;;;;;;;5.93;2.95;;;;;;;5.23;87.85;98742.63;5058960;28;20035;-85
2024/02/14 06:34:18;;;;;;;7.05;3.33;;;;;;;5.19;88.45;98750.19;5038469;28;20048;-85
2024/02/14 06:36:43;;;;;;;8.10;3.42;;;;;;;5.47;88.70;98781.50;5033688;28;20086;-85
2024/02/14 06:39:09;;;;;;;6.32;3.58;;;;;;;5.27;89.05;98764.97;5059483;28;20565;-84
2024/02/14 06:41:34;;;;;;;7.32;3.70;;;;;;;5.40;89.19;98783.38;5023261;28;20091;-85
2024/02/14 06:43:59;;;;;;;7.45;3.03;;;;;;;5.30;88.66;98762.72;5072752;23;20063;-84
2024/02/14 06:46:25;;;;;;;8.85;3.33;;;;;;;5.51;88.70;98790.59;5040867;28;20068;-84
2024/02/14 06:48:50;;;;;;;4.30;3.00;;;;;;;5.47;88.31;98784.13;5038847;28;20025;-85
2024/02/14 06:51:15;;;;;;;5.97;3.00;;;;;;;5.33;88.97;98772.03;5046043;28;20033;-84
2024/02/14 06:53:41;;;;;;;7.45;2.83;;;;;;;5.60;88.33;98799.09;4997575;28;20764;-84
2024/02/14 06:56:06;;;;;;;8.75;3.25;;;;;;;5.46;88.85;98779.84;5035978;28;20113;-83
2024/02/14 06:58:32;;;;;;;5.38;3.42;;;;;;;5.56;88.54;98793.41;5034536;28;20037;-84
2024/02/14 07:00:57;;;;;;;8.13;3.30;;;;;;;5.64;89.06;98802.91;5032330;28;20025;-82
2024/02/14 07:03:22;;;;;;;9.23;3.33;;;;;;;5.48;88.24;98790.25;5034041;28;20029;-84
2024/02/14 07:05:48;;;;;;;5.72;2.75;;;;;;;5.70;88.13;98821.38;5021093;28;20038;-84
2024/02/14 07:08:14;;;;;;;9.50;3.08;;;;;;;5.51;88.45;98797.72;5018860;28;20095;-84
2024/02/14 07:10:40;;;;;;;6.35;3.33;;;;;;;5.39;89.30;98799.47;5038856;28;20033;-83
2024/02/14 07:13:05;;;;;;;8.90;4.45;;;;;;;5.45;89.75;98812.66;5030564;28;20105;-84
2024/02/14 07:15:31;;;;;;;12.55;3.60;;;;;;;5.47;89.66;98807.97;5047212;28;20033;-85
2024/02/14 07:17:58;;;;;;;7.63;3.25;;;;;;;5.53;89.24;98800.97;5047486;28;20080;-85
2024/02/14 07:20:26;;;;;;;5.63;3.83;;;;;;;5.66;88.63;98814.91;5023041;28;20431;-84
2024/02/14 07:22:53;;;;;;;6.18;3.65;;;;;;;5.66;88.26;98817.56;5037084;28;20036;-84
2024/02/14 07:25:19;;;;;;;3.28;2.80;;;;;;;5.46;88.92;98794.94;5027091;28;20030;-84
2024/02/14 07:27:45;;;;;;;9.93;4.40;;;;;;;5.50;89.18;98822.59;5034504;28;20041;-83
2024/02/14 07:30:12;;;;;;;6.90;4.53;;;;;;;5.46;89.22;98801.03;5021676;28;20025;-83
2024/02/14 07:32:38;;;;;;;4.90;3.00;;;;;;;5.55;89.89;98812.97;5038925;28;20056;-84
2024/02/14 07:35:04;;;;;;;15.77;4.72;;;;;;;5.48;90.07;98804.28;5038856;28;20025;-83
2024/02/14 07:37:30;;;;;;;5.03;2.92;;;;;;;5.45;90.25;98793.31;5017992;28;20034;-83
2024/02/14 07:39:56;;;;;;;4.93;3.08;;;;;;;5.52;90.43;98808.13;5037516;28;20025;-84
2024/02/14 07:42:21;;;;;;;4.80;3.35;;;;;;;5.63;90.84;98817.19;5037115;28;20097;-84
2024/02/14 07:44:47;;;;;;;12.32;4.28;;;;;;;5.68;90.30;98817.34;5037651;28;20025;-83
2024/02/14 07:47:13;;;;;;;4.45;3.22;;;;;;;5.65;89.98;98802.72;5041237;28;20050;-84
2024/02/14 07:49:39;;;;;;;7.90;3.55;;;;;;;5.67;90.31;98815.72;5039100;28;20048;-84
2024/02/14 07:52:05;;;;;;;5.35;3.63;;;;;;;5.64;90.11;98800.25;5038481;28;20095;-84
2024/02/14 07:54:30;;;;;;;7.80;3.47;;;;;;;5.51;90.23;98795.91;5035301;28;20025;-84
2024/02/14 07:56:56;;;;;;;9.05;5.18;;;;;;;5.78;89.72;98809.72;5018035;28;20034;-84
2024/02/14 07:59:21;;;;;;;5.93;4.03;;;;;;;5.77;89.72;98803.59;5032264;28;20033;-84
2024/02/14 08:01:47;;;;;;;6.28;3.40;;;;;;;5.70;89.69;98802.06;5034292;28;20083;-84
2024/02/14 08:04:12;;;;;;;5.80;4.28;;;;;;;5.66;89.76;98796.38;5020297;28;20067;-83
2024/02/14 08:06:37;;;;;;;4.72;3.00;;;;;;;5.92;89.67;98835.88;5014047;28;20094;-84
2024/02/14 08:09:06;;;;;;;7.40;3.85;;;;;;;5.80;89.82;98811.13;5015662;28;20033;-84
2024/02/14 08:11:32;;;;;;;6.80;4.25;;;;;;;5.97;89.88;98825.44;5012325;28;20025;-84
2024/02/14 08:13:57;;;;;;;5.00;3.92;;;;;;;5.89;89.71;98801.91;5020736;28;20018;-84
2024/02/14 08:16:24;;;;;;;6.47;3.75;;;;;;;6.10;89.21;98818.38;5002390;28;20040;-84
2024/02/14 08:18:50;;;;;;;8.25;3.65;;;;;;;6.11;89.14;98822.66;5034611;28;20456;-84
2024/02/14 08:21:16;;;;;;;6.07;3.25;;;;;;;6.11;89.83;98831.41;5035086;28;20037;-83
2024/02/14 08:23:41;;;;;;;6.47;3.47;;;;;;;6.02;89.84;98822.13;5015980;28;20101;-83
2024/02/14 08:26:10;;;;;;;7.50;4.03;;;;;;;6.03;89.93;98834.34;5031169;28;20111;-82
2024/02/14 08:28:38;;;;;;;7.90;3.67;;;;;;;6.09;89.82;98841.44;5033771;28;20033;-83
2024/02/14 08:31:10;;;;;;;3.95;3.28;;;;;;;6.00;90.69;98819.72;5012754;28;20030;-83
2024/02/14 08:33:36;;;;;;;6.85;3.28;;;;;;;6.23;89.53;98836.78;5032640;28;20014;-82
2024/02/14 08:36:03;;;;;;;4.88;3.47;;;;;;;6.19;89.47;98832.94;5011351;28;20037;-82
2024/02/14 08:38:28;;;;;;;5.80;3.80;;;;;;;6.27;89.71;98835.34;5033109;28;20073;-83
2024/02/14 08:40:54;;;;;;;8.73;3.72;;;;;;;6.17;90.05;98829.72;5035338;28;20033;-83
2024/02/14 08:43:19;;;;;;;9.27;3.65;;;;;;;6.22;89.91;98833.34;5015805;28;20041;-83
2024/02/14 08:45:45;;;;;;;8.43;4.03;;;;;;;6.31;90.09;98832.00;5033784;28;20022;-83
2024/02/14 08:48:10;;;;;;;5.15;3.65;;;;;;;6.33;89.91;98832.59;5017107;28;20030;-83
2024/02/14 08:50:36;;;;;;;4.32;3.40;;;;;;;6.43;89.51;98835.53;5035209;28;20465;-83
2024/02/14 08:53:01;;;;;;;6.90;3.30;;;;;;;6.38;89.58;98816.00;5034108;28;20075;-84
2024/02/14 08:55:27;;;;;;;8.60;3.63;;;;;;;6.50;89.29;98830.16;5018154;28;20028;-83
2024/02/14 08:57:52;;;;;;;3.78;3.03;;;;;;;6.50;90.57;98851.38;5036212;28;20033;-83
2024/02/14 09:00:21;;;;;;;5.72;3.40;;;;;;;6.41;90.08;98836.78;5012485;28;20029;-83
2024/02/14 09:02:47;;;;;;;6.68;3.75;;;;;;;6.59;90.16;98844.72;5020296;28;20056;-83
2024/02/14 09:05:13;;;;;;;6.50;3.10;;;;;;;6.48;89.92;98829.56;5025743;28;20045;-84
2024/02/14 09:07:39;;;;;;;7.30;3.10;;;;;;;6.67;90.20;98849.72;5008102;28;20029;-83
2024/02/14 09:10:06;;;;;;;5.28;3.42;;;;;;;6.53;90.03;98837.69;5033033;28;20108;-83
2024/02/14 09:12:32;;;;;;;8.10;3.08;;;;;;;6.57;90.26;98850.28;5006905;28;20358;-83
2024/02/14 09:14:57;;;;;;;5.65;3.28;;;;;;;6.56;90.65;98845.97;5029360;28;20029;-82
2024/02/14 09:17:23;;;;;;;7.63;3.45;;;;;;;6.60;90.15;98851.63;5031511;28;20052;-84
2024/02/14 09:19:48;;;;;;;8.73;3.60;;;;;;;6.69;89.87;98861.72;5018009;28;20033;-82
2024/02/14 09:22:18;;;;;;;5.07;3.72;;;;;;;6.77;90.32;98855.31;5038441;28;20064;-84
2024/02/14 09:24:43;;;;;;;5.72;3.58;;;;;;;6.72;90.25;98863.94;5019594;28;20091;-83
2024/02/14 09:27:09;;;;;;;5.75;3.78;;;;;;;6.77;91.01;98868.59;5032157;28;20120;-83
2024/02/14 09:29:36;;;;;;;6.65;3.38;;;;;;;6.66;90.45;98850.78;5037088;28;20424;-83
2024/02/14 09:32:03;;;;;;;4.25;3.38;;;;;;;6.54;90.21;98829.50;5033188;28;20116;-83
2024/02/14 09:34:29;;;;;;;3.67;2.97;;;;;;;6.79;89.65;98846.09;5033503;28;20049;-83
2024/02/14 09:36:56;;;;;;;4.72;3.08;;;;;;;6.88;89.74;98865.16;5031802;28;20497;-82
2024/02/14 09:39:22;;;;;;;5.68;3.55;;;;;;;6.71;89.61;98838.44;5036818;28;20128;-83
2024/02/14 09:41:54;;;;;;;3.90;3.47;;;;;;;7.09;89.02;98862.03;5033583;28;20045;-83
2024/02/14 09:44:21;;;;;;;4.95;3.50;;;;;;;7.01;88.77;98864.97;5025765;28;20062;-83
2024/02/14 09:46:47;;;;;;;7.90;3.88;;;;;;;7.03;89.32;98864.78;5037431;28;20057;-83
2024/02/14 09:49:16;;;;;;;6.93;3.55;;;;;;;7.03;89.63;98864.78;5018062;28;20025;-83
2024/02/14 09:51:44;;;;;;;6.40;3.75;;;;;;;6.86;90.51;98840.69;5034875;28;20795;-83
2024/02/14 09:54:11;;;;;;;5.00;3.08;;;;;;;7.00;90.01;98863.38;5033989;28;20030;-83
2024/02/14 09:56:36;;;;;;;3.50;2.58;;;;;;;6.96;89.85;98856.09;5036256;28;20035;-83
2024/02/14 09:59:02;;;;;;;6.43;3.55;;;;;;;6.90;90.02;98860.47;5021093;28;20105;-83
2024/02/14 10:01:28;;;;;;;7.75;3.92;;;;;;;6.92;90.59;98854.91;5038344;28;20033;-83
2024/02/14 10:03:54;;;;;;;3.92;3.50;;;;;;;6.71;91.09;98827.84;5017296;28;20441;-83
2024/02/14 10:06:21;;;;;;;8.02;3.50;;;;;;;7.05;90.78;98855.56;5024312;28;20082;-82
2024/02/14 10:08:50;;;;;;;5.15;3.33;;;;;;;6.79;90.69;98818.78;5030819;28;20025;-82
2024/02/14 10:11:17;;;;;;;5.93;3.28;;;;;;;7.06;89.98;98857.16;5033317;28;20030;-83
2024/02/14 10:13:47;;;;;;;8.63;3.72;;;;;;;7.08;89.45;98838.34;5031452;28;20026;-83
2024/02/14 10:16:12;;;;;;;5.07;3.63;;;;;;;7.29;88.53;98873.19;5038440;28;20107;-83
2024/02/14 10:18:39;;;;;;;4.60;3.22;;;;;;;7.33;88.72;98866.38;5008752;28;20484;-83
2024/02/14 10:21:04;;;;;;;3.60;2.80;;;;;;;6.99;89.43;98829.13;5033580;28;20030;-82
2024/02/14 10:23:30;;;;;;;5.05;2.60;;;;;;;7.24;89.41;98859.75;5016551;28;20124;-84
2024/02/14 10:25:56;;;;;;;5.05;3.33;;;;;;;7.26;89.02;98865.66;5029122;28;20441;-84
2024/02/14 10:28:23;;;;;;;3.40;2.90;;;;;;;7.23;89.63;98854.69;5032620;28;20018;-84
2024/02/14 10:30:51;;;;;;;5.05;3.05;;;;;;;7.08;89.34;98847.13;5030987;28;20069;-82
2024/02/14 10:33:19;;;;;;;4.18;3.15;;;;;;;7.33;89.43;98898.22;5017856;28;20476;-84
2024/02/14 10:35:44;;;;;;;4.07;2.85;;;;;;;7.28;89.74;98866.25;5049286;28;20040;-83
2024/02/14 10:38:11;;;;;;;7.63;2.75;;;;;;;7.43;89.28;98908.28;5032851;28;20029;-84
2024/02/14 10:40:40;;;;;;;3.67;3.15;;;;;;;7.34;89.91;98881.25;5033686;28;20025;-83
2024/02/14 10:43:09;;;;;;;6.88;3.65;;;;;;;7.47;89.45;98906.78;5018060;28;20052;-83
2024/02/14 10:45:35;;;;;;;4.43;3.58;;;;;;;7.38;89.83;98901.00;5029771;28;20064;-83
2024/02/14 10:48:03;;;;;;;6.78;3.78;;;;;;;7.40;89.78;98895.47;5032872;28;20021;-83
2024/02/14 10:50:33;;;;;;;5.10;3.30;;;;;;;7.40;90.20;98912.19;5037371;28;20091;-84
2024/02/14 10:53:02;;;;;;;4.45;3.15;;;;;;;7.48;89.87;98911.91;5019667;28;20061;-84
2024/02/14 10:55:30;;;;;;;6.07;3.55;;;;;;;7.44;90.73;98912.56;5030258;28;20120;-84
2024/02/14 10:57:57;;;;;;;3.78;3.10;;;;;;;7.31;91.33;98895.00;5024607;28;20052;-84
2024/02/14 11:00:22;;;;;;;5.38;3.40;;;;;;;7.38;91.71;98916.94;5035252;28;20029;-84
2024/02/14 11:02:49;;;;;;;4.93;3.70;;;;;;;7.37;91.14;98912.66;5037234;28;20408;-83
2024/02/14 11:05:16;;;;;;;6.65;3.80;;;;;;;7.36;90.76;98895.09;5034690;28;20033;-84
2024/02/14 11:07:46;;;;;;;6.22;3.40;;;;;;;7.46;91.09;98911.31;5035013;28;20029;-83
2024/02/14 11:10:17;;;;;;;5.57;3.85;;;;;;;7.54;90.57;98910.16;5035372;28;20025;-83
2024/02/14 11:12:44;;;;;;;6.53;4.45;;;;;;;7.32;91.52;98885.16;5025869;28;20095;-84
2024/02/14 11:15:21;;;;;;;6.35;4.53;;;;;;;7.47;91.19;98910.25;5033108;28;20034;-84
2024/02/14 11:17:48;;;;;;;9.88;4.53;;;;;;;7.51;90.96;98924.69;5035285;28;20067;-84
2024/02/14 11:20:30;;;;;;;5.28;3.70;;;;;;;7.42;91.56;98891.56;5034774;28;20123;-84
2024/02/14 11:22:57;;;;;;;6.05;3.97;;;;;;;7.50;92.07;98914.31;5034907;28;20021;-83
2024/02/14 11:25:30;;;;;;;5.78;4.00;;;;;;;7.41;91.93;98892.59;5034768;28;20025;-83
2024/02/14 11:27:57;;;;;;;6.97;3.40;;;;;;;7.51;91.50;98921.25;5019605;28;20369;-83
2024/02/14 11:30:33;;;;;;;8.73;4.22;;;;;;;7.49;92.16;98916.16;5017299;28;20087;-84
2024/02/14 11:33:23;;;;;;;10.18;4.25;;;;;;;7.51;92.33;98923.91;5035105;28;20069;-83
2024/02/14 11:35:53;;;;;;;10.10;4.85;;;;;;;7.50;91.25;98888.56;5019862;28;20037;-82
2024/02/14 11:38:20;;;;;;;6.00;4.32;;;;;;;7.62;90.69;98911.69;5002058;28;20133;-83